sensor_id;sensor_type;location;lat;lon;timestamp;P1;durP1;ratioP1;P2;durP2;ratioP2
18082;SDS011;9168;51.194;6.840;2023-04-01T00:01:04;7.13;;;1.67;;
18082;SDS011;9168;51.194;6.840;2023-04-01T00:03:32;8.60;;;1.88;;
18082;SDS011;9168;51.194;6.840;2023-04-01T00:06:00;10.65;;;1.20;;
18082;SDS011;9168;51.194;6.840;2023-04-01T00:08:28;12.32;;;1.27;;
18082;SDS011;9168;51.194;6.840;2023-04-01T00:10:55;3.17;;;0.73;;
18082;SDS011;9168;51.194;6.840;2023-04-01T00:13:23;8.30;;;1.13;;
18082;SDS011;9168;51.194;6.840;2023-04-01T00:15:50;4.53;;;0.80;;
18082;SDS011;9168;51.194;6.840;2023-04-01T00:18:17;8.25;;;1.13;;
18082;SDS011;9168;51.194;6.840;2023-04-01T00:20:45;6.00;;;1.67;;
18082;SDS011;9168;51.194;6.840;2023-04-01T00:23:14;3.70;;;0.85;;
18082;SDS011;9168;51.194;6.840;2023-04-01T00:25:42;2.67;;;0.60;;
18082;SDS011;9168;51.194;6.840;2023-04-01T00:28:10;6.05;;;1.10;;
18082;SDS011;9168;51.194;6.840;2023-04-01T00:30:37;3.17;;;1.00;;
18082;SDS011;9168;51.194;6.840;2023-04-01T00:33:04;4.22;;;1.02;;
18082;SDS011;9168;51.194;6.840;2023-04-01T00:35:31;6.07;;;1.33;;
18082;SDS011;9168;51.194;6.840;2023-04-01T00:37:58;3.90;;;0.90;;
18082;SDS011;9168;51.194;6.840;2023-04-01T00:40:27;3.97;;;0.88;;
18082;SDS011;9168;51.194;6.840;2023-04-01T00:42:57;6.35;;;1.20;;
18082;SDS011;9168;51.194;6.840;2023-04-01T00:45:29;2.25;;;0.90;;
18082;SDS011;9168;51.194;6.840;2023-04-01T00:47:59;1.83;;;0.68;;
18082;SDS011;9168;51.194;6.840;2023-04-01T00:50:30;1.35;;;0.65;;
18082;SDS011;9168;51.194;6.840;2023-04-01T00:52:59;4.10;;;0.88;;
18082;SDS011;9168;51.194;6.840;2023-04-01T00:55:28;4.55;;;0.90;;
18082;SDS011;9168;51.194;6.840;2023-04-01T00:57:59;2.95;;;0.70;;
18082;SDS011;9168;51.194;6.840;2023-04-01T01:00:28;4.88;;;1.38;;
18082;SDS011;9168;51.194;6.840;2023-04-01T01:02:56;4.00;;;0.68;;
18082;SDS011;9168;51.194;6.840;2023-04-01T01:05:26;3.17;;;0.70;;
18082;SDS011;9168;51.194;6.840;2023-04-01T01:08:01;4.15;;;0.88;;
18082;SDS011;9168;51.194;6.840;2023-04-01T01:10:36;3.63;;;0.75;;
18082;SDS011;9168;51.194;6.840;2023-04-01T01:13:08;8.85;;;0.95;;
18082;SDS011;9168;51.194;6.840;2023-04-01T01:15:41;3.65;;;0.77;;
18082;SDS011;9168;51.194;6.840;2023-04-01T01:18:15;5.50;;;0.90;;
18082;SDS011;9168;51.194;6.840;2023-04-01T01:24:14;10.25;;;0.90;;
18082;SDS011;9168;51.194;6.840;2023-04-01T01:26:56;4.53;;;0.80;;
18082;SDS011;9168;51.194;6.840;2023-04-01T01:29:42;3.22;;;0.85;;
18082;SDS011;9168;51.194;6.840;2023-04-01T01:32:33;7.20;;;1.00;;
18082;SDS011;9168;51.194;6.840;2023-04-01T01:35:22;6.47;;;0.98;;
18082;SDS011;9168;51.194;6.840;2023-04-01T01:37:53;8.63;;;1.23;;
18082;SDS011;9168;51.194;6.840;2023-04-01T01:40:23;4.60;;;0.88;;
18082;SDS011;9168;51.194;6.840;2023-04-01T01:42:53;6.93;;;1.00;;
18082;SDS011;9168;51.194;6.840;2023-04-01T01:45:24;5.03;;;0.80;;
18082;SDS011;9168;51.194;6.840;2023-04-01T01:47:52;2.38;;;0.80;;
18082;SDS011;9168;51.194;6.840;2023-04-01T01:50:24;5.72;;;1.23;;
18082;SDS011;9168;51.194;6.840;2023-04-01T01:52:59;3.85;;;1.05;;
18082;SDS011;9168;51.194;6.840;2023-04-01T01:55:28;2.22;;;0.82;;
18082;SDS011;9168;51.194;6.840;2023-04-01T01:57:56;9.27;;;0.95;;
18082;SDS011;9168;51.194;6.840;2023-04-01T02:00:25;4.68;;;0.68;;
18082;SDS011;9168;51.194;6.840;2023-04-01T02:02:53;2.85;;;0.70;;
18082;SDS011;9168;51.194;6.840;2023-04-01T02:05:22;6.97;;;0.93;;
18082;SDS011;9168;51.194;6.840;2023-04-01T02:07:55;4.35;;;0.65;;
18082;SDS011;9168;51.194;6.840;2023-04-01T02:10:27;1.88;;;0.60;;
18082;SDS011;9168;51.194;6.840;2023-04-01T02:12:58;6.68;;;1.17;;
18082;SDS011;9168;51.194;6.840;2023-04-01T02:15:31;2.55;;;0.50;;
18082;SDS011;9168;51.194;6.840;2023-04-01T02:18:03;4.38;;;1.10;;
18082;SDS011;9168;51.194;6.840;2023-04-01T02:20:33;3.95;;;0.80;;
18082;SDS011;9168;51.194;6.840;2023-04-01T02:23:02;4.03;;;0.85;;
18082;SDS011;9168;51.194;6.840;2023-04-01T02:25:33;4.45;;;0.70;;
18082;SDS011;9168;51.194;6.840;2023-04-01T02:28:02;4.85;;;0.57;;
18082;SDS011;9168;51.194;6.840;2023-04-01T02:30:32;2.90;;;0.80;;
18082;SDS011;9168;51.194;6.840;2023-04-01T02:33:02;4.82;;;0.70;;
18082;SDS011;9168;51.194;6.840;2023-04-01T02:35:30;3.92;;;0.73;;
18082;SDS011;9168;51.194;6.840;2023-04-01T02:38:01;2.17;;;0.50;;
18082;SDS011;9168;51.194;6.840;2023-04-01T02:40:28;2.33;;;0.68;;
18082;SDS011;9168;51.194;6.840;2023-04-01T02:42:55;3.17;;;0.60;;
18082;SDS011;9168;51.194;6.840;2023-04-01T02:45:22;1.63;;;0.75;;
18082;SDS011;9168;51.194;6.840;2023-04-01T02:47:49;6.43;;;1.50;;
18082;SDS011;9168;51.194;6.840;2023-04-01T02:53:02;6.22;;;1.45;;
18082;SDS011;9168;51.194;6.840;2023-04-01T02:55:36;6.93;;;1.65;;
18082;SDS011;9168;51.194;6.840;2023-04-01T02:58:12;3.85;;;1.00;;
18082;SDS011;9168;51.194;6.840;2023-04-01T03:08:22;3.17;;;1.20;;
18082;SDS011;9168;51.194;6.840;2023-04-01T03:10:55;4.78;;;0.90;;
18082;SDS011;9168;51.194;6.840;2023-04-01T03:13:22;3.95;;;0.95;;
18082;SDS011;9168;51.194;6.840;2023-04-01T03:15:50;2.17;;;0.60;;
18082;SDS011;9168;51.194;6.840;2023-04-01T03:18:17;4.00;;;0.70;;
18082;SDS011;9168;51.194;6.840;2023-04-01T03:20:43;3.85;;;0.68;;
18082;SDS011;9168;51.194;6.840;2023-04-01T03:23:11;3.67;;;0.80;;
18082;SDS011;9168;51.194;6.840;2023-04-01T03:55:22;2.50;;;0.88;;
18082;SDS011;9168;51.194;6.840;2023-04-01T03:57:49;2.97;;;0.80;;
18082;SDS011;9168;51.194;6.840;2023-04-01T04:00:16;2.03;;;0.60;;
18082;SDS011;9168;51.194;6.840;2023-04-01T04:02:44;3.92;;;0.88;;
18082;SDS011;9168;51.194;6.840;2023-04-01T04:05:11;2.10;;;0.60;;
18082;SDS011;9168;51.194;6.840;2023-04-01T04:07:38;3.63;;;0.75;;
18082;SDS011;9168;51.194;6.840;2023-04-01T04:10:07;4.43;;;0.80;;
18082;SDS011;9168;51.194;6.840;2023-04-01T04:12:34;2.60;;;0.88;;
18082;SDS011;9168;51.194;6.840;2023-04-01T04:15:01;2.92;;;0.70;;
18082;SDS011;9168;51.194;6.840;2023-04-01T04:17:29;4.40;;;0.75;;
18082;SDS011;9168;51.194;6.840;2023-04-01T04:19:56;3.72;;;0.80;;
18082;SDS011;9168;51.194;6.840;2023-04-01T04:22:22;3.00;;;1.17;;
18082;SDS011;9168;51.194;6.840;2023-04-01T04:24:49;5.07;;;1.23;;
18082;SDS011;9168;51.194;6.840;2023-04-01T04:27:18;9.00;;;2.85;;
18082;SDS011;9168;51.194;6.840;2023-04-01T04:29:45;7.28;;;1.20;;
18082;SDS011;9168;51.194;6.840;2023-04-01T04:32:12;1.08;;;0.70;;
18082;SDS011;9168;51.194;6.840;2023-04-01T04:34:39;3.28;;;1.23;;
18082;SDS011;9168;51.194;6.840;2023-04-01T04:37:06;3.78;;;1.00;;
18082;SDS011;9168;51.194;6.840;2023-04-01T04:39:33;1.85;;;0.93;;
18082;SDS011;9168;51.194;6.840;2023-04-01T04:42:00;3.33;;;1.35;;
18082;SDS011;9168;51.194;6.840;2023-04-01T04:44:28;3.33;;;1.10;;
18082;SDS011;9168;51.194;6.840;2023-04-01T04:46:55;2.38;;;0.77;;
18082;SDS011;9168;51.194;6.840;2023-04-01T04:49:22;8.05;;;1.00;;
18082;SDS011;9168;51.194;6.840;2023-04-01T04:51:49;2.33;;;0.80;;
18082;SDS011;9168;51.194;6.840;2023-04-01T04:54:17;2.83;;;1.10;;
18082;SDS011;9168;51.194;6.840;2023-04-01T04:56:44;2.05;;;0.93;;
18082;SDS011;9168;51.194;6.840;2023-04-01T04:59:11;4.88;;;1.02;;
18082;SDS011;9168;51.194;6.840;2023-04-01T05:01:39;2.13;;;0.77;;
18082;SDS011;9168;51.194;6.840;2023-04-01T05:04:06;3.40;;;0.88;;
18082;SDS011;9168;51.194;6.840;2023-04-01T05:06:33;2.15;;;0.63;;
18082;SDS011;9168;51.194;6.840;2023-04-01T05:08:59;2.85;;;0.80;;
18082;SDS011;9168;51.194;6.840;2023-04-01T05:11:26;3.03;;;1.10;;
18082;SDS011;9168;51.194;6.840;2023-04-01T05:13:53;2.15;;;0.80;;
18082;SDS011;9168;51.194;6.840;2023-04-01T05:16:20;1.85;;;0.70;;
18082;SDS011;9168;51.194;6.840;2023-04-01T05:18:49;1.77;;;0.70;;
18082;SDS011;9168;51.194;6.840;2023-04-01T05:21:15;2.28;;;0.80;;
18082;SDS011;9168;51.194;6.840;2023-04-01T05:23:43;4.35;;;0.73;;
18082;SDS011;9168;51.194;6.840;2023-04-01T05:26:11;2.92;;;0.82;;
18082;SDS011;9168;51.194;6.840;2023-04-01T05:28:39;3.38;;;0.90;;
18082;SDS011;9168;51.194;6.840;2023-04-01T05:31:07;5.80;;;1.27;;
18082;SDS011;9168;51.194;6.840;2023-04-01T05:33:34;3.50;;;0.90;;
18082;SDS011;9168;51.194;6.840;2023-04-01T05:36:09;4.65;;;0.85;;
18082;SDS011;9168;51.194;6.840;2023-04-01T05:38:37;2.25;;;1.23;;
18082;SDS011;9168;51.194;6.840;2023-04-01T05:41:05;4.05;;;1.10;;
18082;SDS011;9168;51.194;6.840;2023-04-01T05:43:32;1.50;;;1.00;;
18082;SDS011;9168;51.194;6.840;2023-04-01T05:46:01;4.20;;;1.00;;
18082;SDS011;9168;51.194;6.840;2023-04-01T05:48:28;5.20;;;1.25;;
18082;SDS011;9168;51.194;6.840;2023-04-01T05:50:55;1.70;;;1.05;;
18082;SDS011;9168;51.194;6.840;2023-04-01T05:53:23;2.22;;;0.98;;
18082;SDS011;9168;51.194;6.840;2023-04-01T05:55:50;3.50;;;1.13;;
18082;SDS011;9168;51.194;6.840;2023-04-01T05:58:17;3.15;;;1.15;;
18082;SDS011;9168;51.194;6.840;2023-04-01T06:00:44;2.00;;;1.13;;
18082;SDS011;9168;51.194;6.840;2023-04-01T06:03:11;4.78;;;1.00;;
18082;SDS011;9168;51.194;6.840;2023-04-01T06:05:38;3.65;;;1.50;;
18082;SDS011;9168;51.194;6.840;2023-04-01T06:08:09;1.65;;;1.17;;
18082;SDS011;9168;51.194;6.840;2023-04-01T06:10:42;4.28;;;1.45;;
18082;SDS011;9168;51.194;6.840;2023-04-01T06:13:18;3.97;;;1.55;;
18082;SDS011;9168;51.194;6.840;2023-04-01T06:15:57;2.42;;;1.60;;
18082;SDS011;9168;51.194;6.840;2023-04-01T06:21:23;4.53;;;1.85;;
18082;SDS011;9168;51.194;6.840;2023-04-01T06:24:06;6.82;;;1.80;;
18082;SDS011;9168;51.194;6.840;2023-04-01T06:26:53;4.40;;;1.90;;
18082;SDS011;9168;51.194;6.840;2023-04-01T06:29:36;2.45;;;1.50;;
18082;SDS011;9168;51.194;6.840;2023-04-01T06:32:20;3.33;;;1.70;;
18082;SDS011;9168;51.194;6.840;2023-04-01T06:38:04;3.28;;;1.80;;
18082;SDS011;9168;51.194;6.840;2023-04-01T06:40:57;4.15;;;1.88;;
18082;SDS011;9168;51.194;6.840;2023-04-01T06:43:52;3.70;;;1.95;;
18082;SDS011;9168;51.194;6.840;2023-04-01T06:46:33;3.70;;;1.85;;
18082;SDS011;9168;51.194;6.840;2023-04-01T06:49:15;2.20;;;1.60;;
18082;SDS011;9168;51.194;6.840;2023-04-01T06:51:57;10.13;;;1.85;;
18082;SDS011;9168;51.194;6.840;2023-04-01T06:54:31;5.18;;;1.60;;
18082;SDS011;9168;51.194;6.840;2023-04-01T06:57:02;3.08;;;1.80;;
18082;SDS011;9168;51.194;6.840;2023-04-01T06:59:39;5.72;;;2.00;;
18082;SDS011;9168;51.194;6.840;2023-04-01T07:02:12;5.10;;;1.83;;
18082;SDS011;9168;51.194;6.840;2023-04-01T07:04:48;4.43;;;1.70;;
18082;SDS011;9168;51.194;6.840;2023-04-01T07:07:21;6.65;;;1.60;;
18082;SDS011;9168;51.194;6.840;2023-04-01T07:09:52;2.65;;;1.55;;
18082;SDS011;9168;51.194;6.840;2023-04-01T07:12:27;3.65;;;1.45;;
18082;SDS011;9168;51.194;6.840;2023-04-01T07:15:03;1.88;;;1.23;;
18082;SDS011;9168;51.194;6.840;2023-04-01T07:17:39;2.90;;;1.60;;
18082;SDS011;9168;51.194;6.840;2023-04-01T07:20:11;1.80;;;1.38;;
18082;SDS011;9168;51.194;6.840;2023-04-01T07:22:44;2.85;;;1.63;;
18082;SDS011;9168;51.194;6.840;2023-04-01T07:25:14;3.67;;;1.40;;
18082;SDS011;9168;51.194;6.840;2023-04-01T07:27:43;2.22;;;1.40;;
18082;SDS011;9168;51.194;6.840;2023-04-01T07:30:14;4.30;;;1.50;;
18082;SDS011;9168;51.194;6.840;2023-04-01T07:32:44;2.08;;;1.73;;
18082;SDS011;9168;51.194;6.840;2023-04-01T07:35:17;4.55;;;1.50;;
18082;SDS011;9168;51.194;6.840;2023-04-01T07:37:55;5.38;;;1.60;;
18082;SDS011;9168;51.194;6.840;2023-04-01T07:40:34;4.75;;;1.80;;
18082;SDS011;9168;51.194;6.840;2023-04-01T07:43:18;2.92;;;1.65;;
18082;SDS011;9168;51.194;6.840;2023-04-01T07:45:59;4.72;;;1.80;;
18082;SDS011;9168;51.194;6.840;2023-04-01T07:48:35;2.47;;;1.60;;
18082;SDS011;9168;51.194;6.840;2023-04-01T07:51:10;5.50;;;1.80;;
18082;SDS011;9168;51.194;6.840;2023-04-01T07:53:45;3.15;;;2.00;;
18082;SDS011;9168;51.194;6.840;2023-04-01T07:56:16;2.40;;;1.88;;
18082;SDS011;9168;51.194;6.840;2023-04-01T07:58:51;3.25;;;2.00;;
18082;SDS011;9168;51.194;6.840;2023-04-01T08:01:28;4.28;;;2.17;;
18082;SDS011;9168;51.194;6.840;2023-04-01T08:04:22;4.40;;;2.00;;
18082;SDS011;9168;51.194;6.840;2023-04-01T08:06:55;3.83;;;2.00;;
18082;SDS011;9168;51.194;6.840;2023-04-01T08:09:30;3.83;;;2.05;;
18082;SDS011;9168;51.194;6.840;2023-04-01T08:12:12;4.05;;;1.90;;
18082;SDS011;9168;51.194;6.840;2023-04-01T08:14:51;3.10;;;2.05;;
18082;SDS011;9168;51.194;6.840;2023-04-01T08:17:26;5.80;;;2.03;;
18082;SDS011;9168;51.194;6.840;2023-04-01T08:20:02;4.90;;;2.40;;
18082;SDS011;9168;51.194;6.840;2023-04-01T08:22:47;5.03;;;2.28;;
18082;SDS011;9168;51.194;6.840;2023-04-01T08:25:17;6.30;;;2.33;;
18082;SDS011;9168;51.194;6.840;2023-04-01T08:27:48;3.33;;;2.10;;
18082;SDS011;9168;51.194;6.840;2023-04-01T08:30:21;5.43;;;2.47;;
18082;SDS011;9168;51.194;6.840;2023-04-01T08:32:53;3.70;;;2.28;;
18082;SDS011;9168;51.194;6.840;2023-04-01T08:35:26;8.52;;;2.30;;
18082;SDS011;9168;51.194;6.840;2023-04-01T08:37:57;4.13;;;2.13;;
18082;SDS011;9168;51.194;6.840;2023-04-01T08:40:33;2.80;;;1.92;;
18082;SDS011;9168;51.194;6.840;2023-04-01T08:43:10;4.50;;;2.05;;
18082;SDS011;9168;51.194;6.840;2023-04-01T08:45:54;4.50;;;1.95;;
18082;SDS011;9168;51.194;6.840;2023-04-01T08:48:38;6.10;;;2.10;;
18082;SDS011;9168;51.194;6.840;2023-04-01T08:51:42;9.77;;;2.33;;
18082;SDS011;9168;51.194;6.840;2023-04-01T08:54:38;3.45;;;2.00;;
18082;SDS011;9168;51.194;6.840;2023-04-01T08:57:13;3.30;;;2.05;;
18082;SDS011;9168;51.194;6.840;2023-04-01T08:59:54;4.82;;;2.25;;
18082;SDS011;9168;51.194;6.840;2023-04-01T09:05:28;3.75;;;2.22;;
18082;SDS011;9168;51.194;6.840;2023-04-01T09:08:19;2.95;;;2.08;;
18082;SDS011;9168;51.194;6.840;2023-04-01T09:10:59;2.90;;;2.45;;
18082;SDS011;9168;51.194;6.840;2023-04-01T09:16:58;5.00;;;3.20;;
18082;SDS011;9168;51.194;6.840;2023-04-01T09:20:15;4.30;;;2.42;;
18082;SDS011;9168;51.194;6.840;2023-04-01T09:22:56;3.53;;;2.53;;
18082;SDS011;9168;51.194;6.840;2023-04-01T09:25:38;4.22;;;2.70;;
18082;SDS011;9168;51.194;6.840;2023-04-01T09:28:15;4.78;;;2.90;;
18082;SDS011;9168;51.194;6.840;2023-04-01T09:33:52;4.53;;;2.95;;
18082;SDS011;9168;51.194;6.840;2023-04-01T09:36:43;5.68;;;3.00;;
18082;SDS011;9168;51.194;6.840;2023-04-01T09:39:34;4.43;;;3.30;;
18082;SDS011;9168;51.194;6.840;2023-04-01T09:44:59;4.82;;;3.25;;
18082;SDS011;9168;51.194;6.840;2023-04-01T09:47:41;5.75;;;3.97;;
18082;SDS011;9168;51.194;6.840;2023-04-01T09:50:26;6.22;;;4.50;;
18082;SDS011;9168;51.194;6.840;2023-04-01T09:53:07;8.27;;;5.60;;
18082;SDS011;9168;51.194;6.840;2023-04-01T10:08:15;11.80;;;5.85;;
18082;SDS011;9168;51.194;6.840;2023-04-01T11:11:33;7.32;;;4.38;;
18082;SDS011;9168;51.194;6.840;2023-04-01T11:23:48;5.47;;;4.00;;
18082;SDS011;9168;51.194;6.840;2023-04-01T11:26:36;9.48;;;5.03;;
18082;SDS011;9168;51.194;6.840;2023-04-01T11:29:26;9.43;;;5.10;;
18082;SDS011;9168;51.194;6.840;2023-04-01T11:32:19;7.93;;;5.63;;
18082;SDS011;9168;51.194;6.840;2023-04-01T11:35:02;8.27;;;5.35;;
18082;SDS011;9168;51.194;6.840;2023-04-01T11:37:50;11.52;;;5.68;;
18082;SDS011;9168;51.194;6.840;2023-04-01T11:40:27;8.88;;;5.70;;
18082;SDS011;9168;51.194;6.840;2023-04-01T11:43:01;6.95;;;5.07;;
18082;SDS011;9168;51.194;6.840;2023-04-01T11:45:39;7.93;;;5.20;;
18082;SDS011;9168;51.194;6.840;2023-04-01T11:48:22;7.82;;;5.38;;
18082;SDS011;9168;51.194;6.840;2023-04-01T11:51:07;8.60;;;5.20;;
18082;SDS011;9168;51.194;6.840;2023-04-01T11:53:47;9.50;;;5.40;;
18082;SDS011;9168;51.194;6.840;2023-04-01T11:56:27;8.80;;;5.72;;
18082;SDS011;9168;51.194;6.840;2023-04-01T11:59:09;8.27;;;5.82;;
18082;SDS011;9168;51.194;6.840;2023-04-01T12:01:55;9.98;;;5.95;;
18082;SDS011;9168;51.194;6.840;2023-04-01T12:07:34;9.63;;;6.28;;
18082;SDS011;9168;51.194;6.840;2023-04-01T12:10:20;8.55;;;6.22;;
18082;SDS011;9168;51.194;6.840;2023-04-01T12:12:53;11.00;;;7.13;;
18082;SDS011;9168;51.194;6.840;2023-04-01T12:15:27;10.80;;;6.50;;
18082;SDS011;9168;51.194;6.840;2023-04-01T12:18:05;9.55;;;6.32;;
18082;SDS011;9168;51.194;6.840;2023-04-01T12:20:45;10.75;;;6.82;;
18082;SDS011;9168;51.194;6.840;2023-04-01T12:23:25;9.85;;;7.38;;
18082;SDS011;9168;51.194;6.840;2023-04-01T12:26:15;10.63;;;7.20;;
18082;SDS011;9168;51.194;6.840;2023-04-01T12:29:03;7.88;;;6.00;;
18082;SDS011;9168;51.194;6.840;2023-04-01T12:31:42;9.95;;;6.95;;
18082;SDS011;9168;51.194;6.840;2023-04-01T12:34:25;12.00;;;7.07;;
18082;SDS011;9168;51.194;6.840;2023-04-01T12:37:08;12.55;;;7.55;;
18082;SDS011;9168;51.194;6.840;2023-04-01T12:40:01;11.05;;;7.30;;
18082;SDS011;9168;51.194;6.840;2023-04-01T12:42:47;8.85;;;6.50;;
18082;SDS011;9168;51.194;6.840;2023-04-01T12:45:28;9.50;;;7.00;;
18082;SDS011;9168;51.194;6.840;2023-04-01T12:51:11;11.02;;;7.20;;
18082;SDS011;9168;51.194;6.840;2023-04-01T12:54:04;7.82;;;6.13;;
18082;SDS011;9168;51.194;6.840;2023-04-01T12:56:53;11.32;;;5.95;;
18082;SDS011;9168;51.194;6.840;2023-04-01T12:59:38;11.45;;;6.40;;
18082;SDS011;9168;51.194;6.840;2023-04-01T13:02:21;9.23;;;6.20;;
18082;SDS011;9168;51.194;6.840;2023-04-01T13:08:06;7.82;;;6.00;;
18082;SDS011;9168;51.194;6.840;2023-04-01T13:10:41;8.20;;;6.15;;
18082;SDS011;9168;51.194;6.840;2023-04-01T13:13:31;9.43;;;6.30;;
18082;SDS011;9168;51.194;6.840;2023-04-01T13:16:18;10.10;;;6.90;;
18082;SDS011;9168;51.194;6.840;2023-04-01T13:18:53;9.15;;;6.10;;
18082;SDS011;9168;51.194;6.840;2023-04-01T13:21:26;8.90;;;5.93;;
18082;SDS011;9168;51.194;6.840;2023-04-01T13:24:03;8.65;;;6.53;;
18082;SDS011;9168;51.194;6.840;2023-04-01T13:26:41;11.73;;;6.70;;
18082;SDS011;9168;51.194;6.840;2023-04-01T13:29:13;8.60;;;5.75;;
18082;SDS011;9168;51.194;6.840;2023-04-01T13:31:49;9.55;;;6.50;;
18082;SDS011;9168;51.194;6.840;2023-04-01T13:34:29;9.00;;;5.30;;
18082;SDS011;9168;51.194;6.840;2023-04-01T13:37:12;7.38;;;5.25;;
18082;SDS011;9168;51.194;6.840;2023-04-01T13:39:56;8.30;;;5.07;;
18082;SDS011;9168;51.194;6.840;2023-04-01T13:42:42;7.88;;;5.05;;
18082;SDS011;9168;51.194;6.840;2023-04-01T13:45:15;6.22;;;4.72;;
18082;SDS011;9168;51.194;6.840;2023-04-01T13:47:58;8.75;;;4.95;;
18082;SDS011;9168;51.194;6.840;2023-04-01T13:53:50;6.43;;;4.45;;
18082;SDS011;9168;51.194;6.840;2023-04-01T13:56:33;6.78;;;4.90;;
18082;SDS011;9168;51.194;6.840;2023-04-01T14:02:11;10.10;;;4.85;;
18082;SDS011;9168;51.194;6.840;2023-04-01T14:04:53;6.22;;;4.50;;
18082;SDS011;9168;51.194;6.840;2023-04-01T14:07:41;12.80;;;4.38;;
18082;SDS011;9168;51.194;6.840;2023-04-01T14:10:19;5.80;;;3.88;;
18082;SDS011;9168;51.194;6.840;2023-04-01T14:12:52;4.93;;;3.80;;
18082;SDS011;9168;51.194;6.840;2023-04-01T14:15:32;6.88;;;4.00;;
18082;SDS011;9168;51.194;6.840;2023-04-01T14:18:26;7.47;;;4.60;;
18082;SDS011;9168;51.194;6.840;2023-04-01T14:24:08;6.15;;;4.70;;
18082;SDS011;9168;51.194;6.840;2023-04-01T14:27:01;5.93;;;4.25;;
18082;SDS011;9168;51.194;6.840;2023-04-01T14:29:56;6.93;;;4.97;;
18082;SDS011;9168;51.194;6.840;2023-04-01T14:32:37;6.28;;;4.60;;
18082;SDS011;9168;51.194;6.840;2023-04-01T14:35:21;6.80;;;4.72;;
18082;SDS011;9168;51.194;6.840;2023-04-01T14:40:54;6.70;;;3.45;;
18082;SDS011;9168;51.194;6.840;2023-04-01T14:49:17;4.03;;;2.85;;
18082;SDS011;9168;51.194;6.840;2023-04-01T14:51:49;3.88;;;2.60;;
18082;SDS011;9168;51.194;6.840;2023-04-01T14:54:18;5.00;;;3.00;;
18082;SDS011;9168;51.194;6.840;2023-04-01T14:56:49;5.50;;;3.40;;
18082;SDS011;9168;51.194;6.840;2023-04-01T16:04:42;6.63;;;4.00;;
18082;SDS011;9168;51.194;6.840;2023-04-01T16:07:21;7.50;;;4.65;;
18082;SDS011;9168;51.194;6.840;2023-04-01T16:12:48;6.20;;;4.20;;
18082;SDS011;9168;51.194;6.840;2023-04-01T16:15:25;6.40;;;4.10;;
18082;SDS011;9168;51.194;6.840;2023-04-01T16:18:00;7.78;;;4.13;;
18082;SDS011;9168;51.194;6.840;2023-04-01T16:20:42;7.53;;;4.05;;
18082;SDS011;9168;51.194;6.840;2023-04-01T16:23:17;6.60;;;4.50;;
18082;SDS011;9168;51.194;6.840;2023-04-01T16:25:51;7.88;;;4.50;;
18082;SDS011;9168;51.194;6.840;2023-04-01T16:28:27;8.82;;;4.90;;
18082;SDS011;9168;51.194;6.840;2023-04-01T16:30:57;9.95;;;5.55;;
18082;SDS011;9168;51.194;6.840;2023-04-01T16:33:32;10.95;;;5.60;;
18082;SDS011;9168;51.194;6.840;2023-04-01T16:36:10;7.68;;;4.88;;
18082;SDS011;9168;51.194;6.840;2023-04-01T16:38:48;7.45;;;4.55;;
18082;SDS011;9168;51.194;6.840;2023-04-01T16:41:20;6.32;;;4.22;;
18082;SDS011;9168;51.194;6.840;2023-04-01T16:43:52;6.18;;;4.60;;
18082;SDS011;9168;51.194;6.840;2023-04-01T16:46:28;5.85;;;4.07;;
18082;SDS011;9168;51.194;6.840;2023-04-01T16:49:02;7.93;;;4.57;;
18082;SDS011;9168;51.194;6.840;2023-04-01T16:51:45;7.28;;;4.40;;
18082;SDS011;9168;51.194;6.840;2023-04-01T16:54:17;7.50;;;4.43;;
18082;SDS011;9168;51.194;6.840;2023-04-01T16:56:54;6.70;;;4.60;;
18082;SDS011;9168;51.194;6.840;2023-04-01T16:59:23;8.48;;;4.93;;
18082;SDS011;9168;51.194;6.840;2023-04-01T17:01:53;9.60;;;5.03;;
18082;SDS011;9168;51.194;6.840;2023-04-01T17:04:29;7.50;;;4.85;;
18082;SDS011;9168;51.194;6.840;2023-04-01T17:07:04;8.95;;;4.95;;
18082;SDS011;9168;51.194;6.840;2023-04-01T17:09:51;7.45;;;4.82;;
18082;SDS011;9168;51.194;6.840;2023-04-01T17:12:26;6.60;;;4.43;;
18082;SDS011;9168;51.194;6.840;2023-04-01T17:15:02;8.93;;;5.22;;
18082;SDS011;9168;51.194;6.840;2023-04-01T17:17:42;7.05;;;5.38;;
18082;SDS011;9168;51.194;6.840;2023-04-01T17:20:26;9.02;;;4.53;;
18082;SDS011;9168;51.194;6.840;2023-04-01T17:23:03;7.03;;;5.10;;
18082;SDS011;9168;51.194;6.840;2023-04-01T17:25:39;6.63;;;4.45;;
18082;SDS011;9168;51.194;6.840;2023-04-01T17:28:28;10.20;;;4.55;;
18082;SDS011;9168;51.194;6.840;2023-04-01T17:31:06;7.53;;;4.57;;
18082;SDS011;9168;51.194;6.840;2023-04-01T17:33:50;7.88;;;4.32;;
18082;SDS011;9168;51.194;6.840;2023-04-01T17:36:32;7.07;;;4.65;;
18082;SDS011;9168;51.194;6.840;2023-04-01T17:39:25;11.80;;;4.50;;
18082;SDS011;9168;51.194;6.840;2023-04-01T17:42:06;7.72;;;4.95;;
18082;SDS011;9168;51.194;6.840;2023-04-01T17:44:52;6.78;;;4.63;;
18082;SDS011;9168;51.194;6.840;2023-04-01T17:47:29;7.82;;;5.25;;
18082;SDS011;9168;51.194;6.840;2023-04-01T17:52:57;6.90;;;4.30;;
18082;SDS011;9168;51.194;6.840;2023-04-01T17:55:35;8.05;;;4.72;;
18082;SDS011;9168;51.194;6.840;2023-04-01T17:58:17;7.57;;;4.72;;
18082;SDS011;9168;51.194;6.840;2023-04-01T18:00:59;7.70;;;4.60;;
18082;SDS011;9168;51.194;6.840;2023-04-01T18:06:41;6.13;;;4.45;;
18082;SDS011;9168;51.194;6.840;2023-04-01T18:09:25;5.68;;;3.85;;
18082;SDS011;9168;51.194;6.840;2023-04-01T18:12:07;6.25;;;3.90;;
18082;SDS011;9168;51.194;6.840;2023-04-01T18:14:46;6.28;;;4.05;;
18082;SDS011;9168;51.194;6.840;2023-04-01T18:17:33;5.25;;;4.20;;
18082;SDS011;9168;51.194;6.840;2023-04-01T18:20:21;6.95;;;4.07;;
18082;SDS011;9168;51.194;6.840;2023-04-01T18:22:58;9.00;;;5.22;;
18082;SDS011;9168;51.194;6.840;2023-04-01T18:25:28;7.25;;;4.65;;
18082;SDS011;9168;51.194;6.840;2023-04-01T18:30:58;6.25;;;4.75;;
18082;SDS011;9168;51.194;6.840;2023-04-01T18:33:36;6.95;;;4.82;;
18082;SDS011;9168;51.194;6.840;2023-04-01T18:36:14;8.57;;;4.88;;
18082;SDS011;9168;51.194;6.840;2023-04-01T18:38:48;6.65;;;4.72;;
18082;SDS011;9168;51.194;6.840;2023-04-01T18:41:22;6.93;;;4.97;;
18082;SDS011;9168;51.194;6.840;2023-04-01T18:44:03;8.05;;;5.05;;
18082;SDS011;9168;51.194;6.840;2023-04-01T18:46:41;6.93;;;5.13;;
18082;SDS011;9168;51.194;6.840;2023-04-01T18:49:16;8.60;;;5.47;;
18082;SDS011;9168;51.194;6.840;2023-04-01T18:51:48;8.82;;;5.70;;
18082;SDS011;9168;51.194;6.840;2023-04-01T18:54:19;10.05;;;5.75;;
18082;SDS011;9168;51.194;6.840;2023-04-01T18:56:51;8.90;;;6.07;;
18082;SDS011;9168;51.194;6.840;2023-04-01T18:59:36;8.52;;;6.53;;
18082;SDS011;9168;51.194;6.840;2023-04-01T19:02:11;9.25;;;6.45;;
18082;SDS011;9168;51.194;6.840;2023-04-01T19:04:45;8.82;;;5.93;;
18082;SDS011;9168;51.194;6.840;2023-04-01T19:10:25;8.68;;;5.85;;
18082;SDS011;9168;51.194;6.840;2023-04-01T19:13:11;9.23;;;6.22;;
18082;SDS011;9168;51.194;6.840;2023-04-01T19:15:49;7.75;;;5.95;;
18082;SDS011;9168;51.194;6.840;2023-04-01T19:18:33;12.48;;;6.35;;
18082;SDS011;9168;51.194;6.840;2023-04-01T19:21:10;9.10;;;6.45;;
18082;SDS011;9168;51.194;6.840;2023-04-01T19:26:42;9.55;;;6.25;;
18082;SDS011;9168;51.194;6.840;2023-04-01T19:29:20;23.08;;;9.30;;
18082;SDS011;9168;51.194;6.840;2023-04-01T19:31:56;18.58;;;8.15;;
18082;SDS011;9168;51.194;6.840;2023-04-01T19:34:31;10.18;;;5.93;;
18082;SDS011;9168;51.194;6.840;2023-04-01T19:37:11;8.73;;;6.05;;
18082;SDS011;9168;51.194;6.840;2023-04-01T19:39:49;9.02;;;5.95;;
18082;SDS011;9168;51.194;6.840;2023-04-01T19:42:25;12.10;;;6.50;;
18082;SDS011;9168;51.194;6.840;2023-04-01T19:45:04;11.45;;;7.43;;
18082;SDS011;9168;51.194;6.840;2023-04-01T19:47:48;8.93;;;6.25;;
18082;SDS011;9168;51.194;6.840;2023-04-01T19:50:27;8.45;;;5.90;;
18082;SDS011;9168;51.194;6.840;2023-04-01T19:53:02;8.45;;;6.22;;
18082;SDS011;9168;51.194;6.840;2023-04-01T19:55:36;13.57;;;7.03;;
18082;SDS011;9168;51.194;6.840;2023-04-01T19:58:11;9.82;;;7.32;;
18082;SDS011;9168;51.194;6.840;2023-04-01T20:00:47;11.75;;;7.32;;
18082;SDS011;9168;51.194;6.840;2023-04-01T20:03:23;15.30;;;7.93;;
18082;SDS011;9168;51.194;6.840;2023-04-01T20:06:02;21.08;;;8.40;;